sensor_id;sensor_type;location;lat;lon;timestamp;pressure;altitude;pressure_sealevel;temperature
11792;BMP180;5953;52.372;9.918;2023-02-05T00:01:42;102998.00;;;7.00
11792;BMP180;5953;52.372;9.918;2023-02-05T00:04:09;103002.00;;;6.70
11792;BMP180;5953;52.372;9.918;2023-02-05T00:06:37;102998.00;;;6.60
11792;BMP180;5953;52.372;9.918;2023-02-05T00:09:06;102995.00;;;6.70
11792;BMP180;5953;52.372;9.918;2023-02-05T00:11:34;102993.00;;;6.80
11792;BMP180;5953;52.372;9.918;2023-02-05T00:14:01;102989.00;;;6.60
11792;BMP180;5953;52.372;9.918;2023-02-05T00:16:29;102995.00;;;6.60
11792;BMP180;5953;52.372;9.918;2023-02-05T00:18:57;102992.00;;;6.30
11792;BMP180;5953;52.372;9.918;2023-02-05T00:21:25;102989.00;;;6.30
11792;BMP180;5953;52.372;9.918;2023-02-05T00:23:53;102995.00;;;6.60
11792;BMP180;5953;52.372;9.918;2023-02-05T00:26:22;102985.00;;;6.50
11792;BMP180;5953;52.372;9.918;2023-02-05T00:28:49;102986.00;;;6.50
11792;BMP180;5953;52.372;9.918;2023-02-05T00:31:19;102978.00;;;6.60
11792;BMP180;5953;52.372;9.918;2023-02-05T00:33:49;102980.00;;;6.30
11792;BMP180;5953;52.372;9.918;2023-02-05T00:36:18;102982.00;;;6.60
11792;BMP180;5953;52.372;9.918;2023-02-05T00:38:47;102984.00;;;6.40
11792;BMP180;5953;52.372;9.918;2023-02-05T00:41:15;102980.00;;;6.70
11792;BMP180;5953;52.372;9.918;2023-02-05T00:43:44;102968.00;;;6.60
11792;BMP180;5953;52.372;9.918;2023-02-05T00:46:13;102971.00;;;6.50
11792;BMP180;5953;52.372;9.918;2023-02-05T00:48:41;102962.00;;;6.40
11792;BMP180;5953;52.372;9.918;2023-02-05T00:51:09;102930.00;;;5.90
11792;BMP180;5953;52.372;9.918;2023-02-05T00:53:37;102956.00;;;6.20
11792;BMP180;5953;52.372;9.918;2023-02-05T00:56:05;102947.00;;;6.10
11792;BMP180;5953;52.372;9.918;2023-02-05T00:58:33;102944.00;;;6.20
11792;BMP180;5953;52.372;9.918;2023-02-05T01:01:02;102922.00;;;6.10
11792;BMP180;5953;52.372;9.918;2023-02-05T01:03:30;102933.00;;;6.10
11792;BMP180;5953;52.372;9.918;2023-02-05T01:05:58;102929.00;;;6.30
11792;BMP180;5953;52.372;9.918;2023-02-05T01:08:28;102922.00;;;6.10
11792;BMP180;5953;52.372;9.918;2023-02-05T01:10:56;102929.00;;;6.30
11792;BMP180;5953;52.372;9.918;2023-02-05T01:13:24;102910.00;;;6.10
11792;BMP180;5953;52.372;9.918;2023-02-05T01:15:52;102914.00;;;6.10
11792;BMP180;5953;52.372;9.918;2023-02-05T01:18:21;102908.00;;;6.00
11792;BMP180;5953;52.372;9.918;2023-02-05T01:20:49;102911.00;;;6.20
11792;BMP180;5953;52.372;9.918;2023-02-05T01:23:17;102904.00;;;6.20
11792;BMP180;5953;52.372;9.918;2023-02-05T01:25:44;102903.00;;;6.30
11792;BMP180;5953;52.372;9.918;2023-02-05T01:28:12;102888.00;;;6.20
11792;BMP180;5953;52.372;9.918;2023-02-05T01:30:40;102884.00;;;6.30
11792;BMP180;5953;52.372;9.918;2023-02-05T01:33:08;102874.00;;;6.50
11792;BMP180;5953;52.372;9.918;2023-02-05T01:35:37;102865.00;;;6.20
11792;BMP180;5953;52.372;9.918;2023-02-05T01:38:05;102882.00;;;6.20
11792;BMP180;5953;52.372;9.918;2023-02-05T01:40:32;102872.00;;;6.00
11792;BMP180;5953;52.372;9.918;2023-02-05T01:43:00;102875.00;;;5.80
11792;BMP180;5953;52.372;9.918;2023-02-05T01:45:48;102868.00;;;5.70
11792;BMP180;5953;52.372;9.918;2023-02-05T01:48:22;102867.00;;;5.90
11792;BMP180;5953;52.372;9.918;2023-02-05T01:50:54;102880.00;;;5.90
11792;BMP180;5953;52.372;9.918;2023-02-05T01:53:25;102880.00;;;5.80
11792;BMP180;5953;52.372;9.918;2023-02-05T01:55:55;102868.00;;;5.90
11792;BMP180;5953;52.372;9.918;2023-02-05T01:58:25;102855.00;;;5.70
11792;BMP180;5953;52.372;9.918;2023-02-05T02:00:54;102845.00;;;5.20
11792;BMP180;5953;52.372;9.918;2023-02-05T02:03:24;102845.00;;;5.40
11792;BMP180;5953;52.372;9.918;2023-02-05T02:05:54;102849.00;;;5.60
11792;BMP180;5953;52.372;9.918;2023-02-05T02:08:22;102841.00;;;5.60
11792;BMP180;5953;52.372;9.918;2023-02-05T02:10:51;102830.00;;;5.40
11792;BMP180;5953;52.372;9.918;2023-02-05T02:13:20;102836.00;;;5.40
11792;BMP180;5953;52.372;9.918;2023-02-05T02:15:49;102832.00;;;5.40
11792;BMP180;5953;52.372;9.918;2023-02-05T02:18:18;102830.00;;;5.50
11792;BMP180;5953;52.372;9.918;2023-02-05T02:21:10;102828.00;;;5.60
11792;BMP180;5953;52.372;9.918;2023-02-05T02:23:51;102832.00;;;5.70
11792;BMP180;5953;52.372;9.918;2023-02-05T02:26:35;102829.00;;;5.80
11792;BMP180;5953;52.372;9.918;2023-02-05T02:29:14;102829.00;;;5.80
11792;BMP180;5953;52.372;9.918;2023-02-05T02:31:47;102831.00;;;5.90
11792;BMP180;5953;52.372;9.918;2023-02-05T02:34:21;102822.00;;;5.90
11792;BMP180;5953;52.372;9.918;2023-02-05T02:36:59;102811.00;;;5.80
11792;BMP180;5953;52.372;9.918;2023-02-05T02:39:34;102808.00;;;5.70
11792;BMP180;5953;52.372;9.918;2023-02-05T02:42:08;102814.00;;;5.60
11792;BMP180;5953;52.372;9.918;2023-02-05T02:44:45;102808.00;;;5.50
11792;BMP180;5953;52.372;9.918;2023-02-05T02:47:17;102793.00;;;5.50
11792;BMP180;5953;52.372;9.918;2023-02-05T02:49:47;102797.00;;;5.70
11792;BMP180;5953;52.372;9.918;2023-02-05T02:52:18;102789.00;;;5.40
11792;BMP180;5953;52.372;9.918;2023-02-05T02:54:49;102794.00;;;5.60
11792;BMP180;5953;52.372;9.918;2023-02-05T02:57:20;102776.00;;;5.70
11792;BMP180;5953;52.372;9.918;2023-02-05T02:59:52;102783.00;;;5.70
11792;BMP180;5953;52.372;9.918;2023-02-05T03:02:21;102796.00;;;5.70
11792;BMP180;5953;52.372;9.918;2023-02-05T03:04:52;102789.00;;;5.70
11792;BMP180;5953;52.372;9.918;2023-02-05T03:07:25;102799.00;;;5.70
11792;BMP180;5953;52.372;9.918;2023-02-05T03:09:58;102781.00;;;5.60
11792;BMP180;5953;52.372;9.918;2023-02-05T03:12:27;102786.00;;;5.40
11792;BMP180;5953;52.372;9.918;2023-02-05T03:14:56;102798.00;;;5.60
11792;BMP180;5953;52.372;9.918;2023-02-05T03:17:24;102788.00;;;5.60
11792;BMP180;5953;52.372;9.918;2023-02-05T03:20:01;102792.00;;;5.80
11792;BMP180;5953;52.372;9.918;2023-02-05T03:22:31;102789.00;;;5.60
11792;BMP180;5953;52.372;9.918;2023-02-05T03:24:59;102785.00;;;5.80
11792;BMP180;5953;52.372;9.918;2023-02-05T03:27:27;102788.00;;;5.60
11792;BMP180;5953;52.372;9.918;2023-02-05T03:29:57;102792.00;;;5.20
11792;BMP180;5953;52.372;9.918;2023-02-05T03:32:37;102793.00;;;5.40
11792;BMP180;5953;52.372;9.918;2023-02-05T03:35:17;102788.00;;;5.60
11792;BMP180;5953;52.372;9.918;2023-02-05T03:37:52;102785.00;;;5.50
11792;BMP180;5953;52.372;9.918;2023-02-05T03:40:28;102795.00;;;5.50
11792;BMP180;5953;52.372;9.918;2023-02-05T03:43:02;102792.00;;;5.60
11792;BMP180;5953;52.372;9.918;2023-02-05T03:45:44;102783.00;;;5.60
11792;BMP180;5953;52.372;9.918;2023-02-05T03:48:40;102788.00;;;5.60
11792;BMP180;5953;52.372;9.918;2023-02-05T03:51:22;102794.00;;;5.70
11792;BMP180;5953;52.372;9.918;2023-02-05T03:54:00;102793.00;;;5.70
11792;BMP180;5953;52.372;9.918;2023-02-05T03:56:34;102773.00;;;5.60
11792;BMP180;5953;52.372;9.918;2023-02-05T03:59:04;102763.00;;;5.50
11792;BMP180;5953;52.372;9.918;2023-02-05T04:01:34;102760.00;;;5.50
11792;BMP180;5953;52.372;9.918;2023-02-05T04:04:02;102772.00;;;5.60
11792;BMP180;5953;52.372;9.918;2023-02-05T04:06:30;102768.00;;;5.40
11792;BMP180;5953;52.372;9.918;2023-02-05T04:08:58;102761.00;;;5.30
11792;BMP180;5953;52.372;9.918;2023-02-05T04:11:25;102755.00;;;5.20
11792;BMP180;5953;52.372;9.918;2023-02-05T04:13:53;102756.00;;;5.30
11792;BMP180;5953;52.372;9.918;2023-02-05T04:16:21;102750.00;;;5.30
11792;BMP180;5953;52.372;9.918;2023-02-05T04:18:50;102752.00;;;5.10
11792;BMP180;5953;52.372;9.918;2023-02-05T04:21:17;102750.00;;;5.20
11792;BMP180;5953;52.372;9.918;2023-02-05T04:23:45;102753.00;;;5.30
11792;BMP180;5953;52.372;9.918;2023-02-05T04:26:13;102751.00;;;5.10
11792;BMP180;5953;52.372;9.918;2023-02-05T04:28:41;102751.00;;;5.20
11792;BMP180;5953;52.372;9.918;2023-02-05T04:31:09;102741.00;;;5.20
11792;BMP180;5953;52.372;9.918;2023-02-05T04:33:37;102748.00;;;5.20
11792;BMP180;5953;52.372;9.918;2023-02-05T04:36:07;102743.00;;;5.30
11792;BMP180;5953;52.372;9.918;2023-02-05T04:38:35;102741.00;;;5.40
11792;BMP180;5953;52.372;9.918;2023-02-05T04:41:03;102748.00;;;5.30
11792;BMP180;5953;52.372;9.918;2023-02-05T04:43:31;102753.00;;;5.50
11792;BMP180;5953;52.372;9.918;2023-02-05T04:46:03;102757.00;;;5.50
11792;BMP180;5953;52.372;9.918;2023-02-05T04:48:31;102735.00;;;5.40
11792;BMP180;5953;52.372;9.918;2023-02-05T04:50:59;102743.00;;;5.40
11792;BMP180;5953;52.372;9.918;2023-02-05T04:53:28;102742.00;;;5.40
11792;BMP180;5953;52.372;9.918;2023-02-05T04:56:03;102744.00;;;5.30
11792;BMP180;5953;52.372;9.918;2023-02-05T04:58:31;102738.00;;;5.30
11792;BMP180;5953;52.372;9.918;2023-02-05T05:00:59;102731.00;;;5.30
11792;BMP180;5953;52.372;9.918;2023-02-05T05:03:26;102730.00;;;5.20
11792;BMP180;5953;52.372;9.918;2023-02-05T05:05:54;102731.00;;;5.40
11792;BMP180;5953;52.372;9.918;2023-02-05T05:08:22;102730.00;;;5.50
11792;BMP180;5953;52.372;9.918;2023-02-05T05:10:51;102727.00;;;5.30
11792;BMP180;5953;52.372;9.918;2023-02-05T05:13:19;102735.00;;;5.30
11792;BMP180;5953;52.372;9.918;2023-02-05T05:15:52;102730.00;;;5.40
11792;BMP180;5953;52.372;9.918;2023-02-05T05:18:20;102731.00;;;5.30
11792;BMP180;5953;52.372;9.918;2023-02-05T05:20:47;102731.00;;;5.40
11792;BMP180;5953;52.372;9.918;2023-02-05T05:23:15;102717.00;;;5.40
11792;BMP180;5953;52.372;9.918;2023-02-05T05:25:44;102716.00;;;5.40
11792;BMP180;5953;52.372;9.918;2023-02-05T05:28:15;102710.00;;;5.50
11792;BMP180;5953;52.372;9.918;2023-02-05T05:30:44;102706.00;;;5.30
11792;BMP180;5953;52.372;9.918;2023-02-05T05:33:12;102716.00;;;5.50
11792;BMP180;5953;52.372;9.918;2023-02-05T05:35:40;102717.00;;;5.60
11792;BMP180;5953;52.372;9.918;2023-02-05T05:38:08;102707.00;;;5.70
11792;BMP180;5953;52.372;9.918;2023-02-05T05:40:35;102710.00;;;5.70
11792;BMP180;5953;52.372;9.918;2023-02-05T05:43:22;102698.00;;;5.80
11792;BMP180;5953;52.372;9.918;2023-02-05T05:46:07;102699.00;;;5.90
11792;BMP180;5953;52.372;9.918;2023-02-05T05:48:35;102697.00;;;5.80
11792;BMP180;5953;52.372;9.918;2023-02-05T05:51:03;102684.00;;;5.90
11792;BMP180;5953;52.372;9.918;2023-02-05T05:53:31;102683.00;;;5.90
11792;BMP180;5953;52.372;9.918;2023-02-05T05:55:59;102689.00;;;5.80
11792;BMP180;5953;52.372;9.918;2023-02-05T05:58:28;102691.00;;;5.60
11792;BMP180;5953;52.372;9.918;2023-02-05T06:00:56;102685.00;;;5.60
11792;BMP180;5953;52.372;9.918;2023-02-05T06:03:24;102665.00;;;5.60
11792;BMP180;5953;52.372;9.918;2023-02-05T06:05:51;102659.00;;;5.80
11792;BMP180;5953;52.372;9.918;2023-02-05T06:08:19;102654.00;;;5.90
11792;BMP180;5953;52.372;9.918;2023-02-05T06:10:47;102644.00;;;5.80
11792;BMP180;5953;52.372;9.918;2023-02-05T06:13:14;102658.00;;;5.60
11792;BMP180;5953;52.372;9.918;2023-02-05T06:15:44;102658.00;;;5.30
11792;BMP180;5953;52.372;9.918;2023-02-05T06:18:12;102644.00;;;5.10
11792;BMP180;5953;52.372;9.918;2023-02-05T06:20:40;102648.00;;;5.40
11792;BMP180;5953;52.372;9.918;2023-02-05T06:23:08;102638.00;;;5.70
11792;BMP180;5953;52.372;9.918;2023-02-05T06:25:36;102617.00;;;5.70
11792;BMP180;5953;52.372;9.918;2023-02-05T06:28:04;102607.00;;;5.80
11792;BMP180;5953;52.372;9.918;2023-02-05T06:30:31;102607.00;;;5.60
11792;BMP180;5953;52.372;9.918;2023-02-05T06:33:00;102608.00;;;5.60
11792;BMP180;5953;52.372;9.918;2023-02-05T06:35:28;102643.00;;;5.80
11792;BMP180;5953;52.372;9.918;2023-02-05T06:37:56;102643.00;;;5.60
11792;BMP180;5953;52.372;9.918;2023-02-05T06:40:23;102626.00;;;6.00
11792;BMP180;5953;52.372;9.918;2023-02-05T06:42:53;102643.00;;;6.00
11792;BMP180;5953;52.372;9.918;2023-02-05T06:45:21;102657.00;;;5.90
11792;BMP180;5953;52.372;9.918;2023-02-05T06:47:49;102661.00;;;5.90
11792;BMP180;5953;52.372;9.918;2023-02-05T06:50:19;102678.00;;;6.00
11792;BMP180;5953;52.372;9.918;2023-02-05T06:52:47;102664.00;;;6.10
11792;BMP180;5953;52.372;9.918;2023-02-05T06:55:15;102647.00;;;6.00
11792;BMP180;5953;52.372;9.918;2023-02-05T06:57:43;102645.00;;;5.90
11792;BMP180;5953;52.372;9.918;2023-02-05T07:00:12;102652.00;;;5.70
11792;BMP180;5953;52.372;9.918;2023-02-05T07:02:40;102642.00;;;5.80
11792;BMP180;5953;52.372;9.918;2023-02-05T07:05:08;102647.00;;;5.50
11792;BMP180;5953;52.372;9.918;2023-02-05T07:07:37;102639.00;;;5.30
11792;BMP180;5953;52.372;9.918;2023-02-05T07:10:06;102642.00;;;5.30
11792;BMP180;5953;52.372;9.918;2023-02-05T07:12:33;102639.00;;;5.70
11792;BMP180;5953;52.372;9.918;2023-02-05T07:15:01;102642.00;;;5.90
11792;BMP180;5953;52.372;9.918;2023-02-05T07:17:29;102645.00;;;5.90
11792;BMP180;5953;52.372;9.918;2023-02-05T07:19:57;102656.00;;;6.00
11792;BMP180;5953;52.372;9.918;2023-02-05T07:22:24;102646.00;;;6.10
11792;BMP180;5953;52.372;9.918;2023-02-05T07:24:53;102643.00;;;6.20
11792;BMP180;5953;52.372;9.918;2023-02-05T07:27:21;102649.00;;;6.10
11792;BMP180;5953;52.372;9.918;2023-02-05T07:29:49;102653.00;;;6.20
11792;BMP180;5953;52.372;9.918;2023-02-05T07:32:16;102629.00;;;6.30
11792;BMP180;5953;52.372;9.918;2023-02-05T07:34:44;102649.00;;;6.30
11792;BMP180;5953;52.372;9.918;2023-02-05T07:37:12;102653.00;;;6.30
11792;BMP180;5953;52.372;9.918;2023-02-05T07:39:40;102629.00;;;5.90
11792;BMP180;5953;52.372;9.918;2023-02-05T07:42:09;102624.00;;;5.70
11792;BMP180;5953;52.372;9.918;2023-02-05T07:44:37;102621.00;;;5.70
11792;BMP180;5953;52.372;9.918;2023-02-05T07:47:05;102628.00;;;5.90
11792;BMP180;5953;52.372;9.918;2023-02-05T07:49:33;102622.00;;;5.60
11792;BMP180;5953;52.372;9.918;2023-02-05T07:52:01;102626.00;;;5.50
11792;BMP180;5953;52.372;9.918;2023-02-05T07:54:29;102628.00;;;5.40
11792;BMP180;5953;52.372;9.918;2023-02-05T07:56:56;102616.00;;;5.70
11792;BMP180;5953;52.372;9.918;2023-02-05T07:59:28;102622.00;;;5.50
11792;BMP180;5953;52.372;9.918;2023-02-05T08:01:56;102613.00;;;5.50
11792;BMP180;5953;52.372;9.918;2023-02-05T08:04:24;102617.00;;;5.50
11792;BMP180;5953;52.372;9.918;2023-02-05T08:06:52;102617.00;;;5.60
11792;BMP180;5953;52.372;9.918;2023-02-05T08:09:19;102609.00;;;5.60
11792;BMP180;5953;52.372;9.918;2023-02-05T08:11:47;102612.00;;;5.80
11792;BMP180;5953;52.372;9.918;2023-02-05T08:14:15;102616.00;;;5.80
11792;BMP180;5953;52.372;9.918;2023-02-05T08:16:44;102606.00;;;5.80
11792;BMP180;5953;52.372;9.918;2023-02-05T08:19:13;102620.00;;;6.00
11792;BMP180;5953;52.372;9.918;2023-02-05T08:21:41;102620.00;;;5.90
11792;BMP180;5953;52.372;9.918;2023-02-05T08:24:09;102610.00;;;6.00
11792;BMP180;5953;52.372;9.918;2023-02-05T08:26:37;102616.00;;;5.70
11792;BMP180;5953;52.372;9.918;2023-02-05T08:29:05;102620.00;;;5.80
11792;BMP180;5953;52.372;9.918;2023-02-05T08:31:34;102624.00;;;6.00
11792;BMP180;5953;52.372;9.918;2023-02-05T08:34:03;102626.00;;;6.10
11792;BMP180;5953;52.372;9.918;2023-02-05T08:36:31;102622.00;;;6.00
11792;BMP180;5953;52.372;9.918;2023-02-05T08:38:59;102625.00;;;6.00
11792;BMP180;5953;52.372;9.918;2023-02-05T08:41:26;102627.00;;;5.80
11792;BMP180;5953;52.372;9.918;2023-02-05T08:43:54;102630.00;;;5.90
11792;BMP180;5953;52.372;9.918;2023-02-05T08:46:22;102622.00;;;6.00
11792;BMP180;5953;52.372;9.918;2023-02-05T08:48:57;102616.00;;;6.20
11792;BMP180;5953;52.372;9.918;2023-02-05T08:51:26;102626.00;;;6.10
11792;BMP180;5953;52.372;9.918;2023-02-05T08:53:54;102620.00;;;6.40
11792;BMP180;5953;52.372;9.918;2023-02-05T08:56:22;102617.00;;;6.50
11792;BMP180;5953;52.372;9.918;2023-02-05T08:58:49;102622.00;;;6.30
11792;BMP180;5953;52.372;9.918;2023-02-05T09:01:17;102620.00;;;6.40
11792;BMP180;5953;52.372;9.918;2023-02-05T09:03:45;102609.00;;;6.30
11792;BMP180;5953;52.372;9.918;2023-02-05T09:06:14;102619.00;;;6.40
11792;BMP180;5953;52.372;9.918;2023-02-05T09:08:43;102614.00;;;6.60
11792;BMP180;5953;52.372;9.918;2023-02-05T09:11:12;102620.00;;;6.70
11792;BMP180;5953;52.372;9.918;2023-02-05T09:13:40;102619.00;;;6.80
11792;BMP180;5953;52.372;9.918;2023-02-05T09:16:09;102622.00;;;6.90
11792;BMP180;5953;52.372;9.918;2023-02-05T09:18:37;102622.00;;;6.60
11792;BMP180;5953;52.372;9.918;2023-02-05T09:21:06;102619.00;;;6.60
11792;BMP180;5953;52.372;9.918;2023-02-05T09:23:34;102617.00;;;6.80
11792;BMP180;5953;52.372;9.918;2023-02-05T09:26:04;102625.00;;;6.90
11792;BMP180;5953;52.372;9.918;2023-02-05T09:28:32;102609.00;;;7.00
11792;BMP180;5953;52.372;9.918;2023-02-05T09:31:04;102622.00;;;7.10
11792;BMP180;5953;52.372;9.918;2023-02-05T09:33:33;102619.00;;;7.20
11792;BMP180;5953;52.372;9.918;2023-02-05T09:36:04;102615.00;;;7.00
11792;BMP180;5953;52.372;9.918;2023-02-05T09:38:32;102627.00;;;7.20
11792;BMP180;5953;52.372;9.918;2023-02-05T09:41:02;102621.00;;;7.30
11792;BMP180;5953;52.372;9.918;2023-02-05T09:43:44;102614.00;;;7.30
11792;BMP180;5953;52.372;9.918;2023-02-05T09:46:20;102619.00;;;7.40
11792;BMP180;5953;52.372;9.918;2023-02-05T09:48:55;102618.00;;;7.40
11792;BMP180;5953;52.372;9.918;2023-02-05T09:51:29;102628.00;;;7.40
11792;BMP180;5953;52.372;9.918;2023-02-05T09:54:04;102631.00;;;7.30
11792;BMP180;5953;52.372;9.918;2023-02-05T09:56:33;102634.00;;;7.40
11792;BMP180;5953;52.372;9.918;2023-02-05T09:59:04;102646.00;;;7.60
11792;BMP180;5953;52.372;9.918;2023-02-05T10:01:41;102630.00;;;7.60
11792;BMP180;5953;52.372;9.918;2023-02-05T10:04:10;102633.00;;;7.60
11792;BMP180;5953;52.372;9.918;2023-02-05T10:06:56;102633.00;;;7.60
11792;BMP180;5953;52.372;9.918;2023-02-05T10:09:41;102634.00;;;7.70
11792;BMP180;5953;52.372;9.918;2023-02-05T10:12:22;102625.00;;;7.70
11792;BMP180;5953;52.372;9.918;2023-02-05T10:15:04;102621.00;;;7.80
11792;BMP180;5953;52.372;9.918;2023-02-05T10:17:46;102632.00;;;7.80
11792;BMP180;5953;52.372;9.918;2023-02-05T10:20:31;102631.00;;;7.90
11792;BMP180;5953;52.372;9.918;2023-02-05T10:23:10;102629.00;;;7.90
11792;BMP180;5953;52.372;9.918;2023-02-05T10:25:49;102638.00;;;7.90
11792;BMP180;5953;52.372;9.918;2023-02-05T10:28:35;102629.00;;;7.90
11792;BMP180;5953;52.372;9.918;2023-02-05T10:31:16;102621.00;;;7.80
11792;BMP180;5953;52.372;9.918;2023-02-05T10:33:49;102627.00;;;7.90
11792;BMP180;5953;52.372;9.918;2023-02-05T10:36:23;102638.00;;;7.70
11792;BMP180;5953;52.372;9.918;2023-02-05T10:38:53;102644.00;;;7.70
11792;BMP180;5953;52.372;9.918;2023-02-05T10:41:24;102635.00;;;7.80
11792;BMP180;5953;52.372;9.918;2023-02-05T10:44:02;102634.00;;;7.60
11792;BMP180;5953;52.372;9.918;2023-02-05T10:46:33;102642.00;;;7.50
11792;BMP180;5953;52.372;9.918;2023-02-05T10:49:05;102648.00;;;7.60
11792;BMP180;5953;52.372;9.918;2023-02-05T10:51:38;102642.00;;;7.60
11792;BMP180;5953;52.372;9.918;2023-02-05T10:54:14;102640.00;;;7.50
11792;BMP180;5953;52.372;9.918;2023-02-05T10:56:43;102650.00;;;7.50
11792;BMP180;5953;52.372;9.918;2023-02-05T10:59:19;102641.00;;;7.40
11792;BMP180;5953;52.372;9.918;2023-02-05T11:01:49;102647.00;;;7.50
11792;BMP180;5953;52.372;9.918;2023-02-05T11:04:23;102639.00;;;7.50
11792;BMP180;5953;52.372;9.918;2023-02-05T11:06:54;102633.00;;;7.60
11792;BMP180;5953;52.372;9.918;2023-02-05T11:09:30;102634.00;;;7.50
11792;BMP180;5953;52.372;9.918;2023-02-05T11:12:00;102630.00;;;7.70
11792;BMP180;5953;52.372;9.918;2023-02-05T11:14:32;102627.00;;;7.70
11792;BMP180;5953;52.372;9.918;2023-02-05T11:17:09;102628.00;;;7.60
11792;BMP180;5953;52.372;9.918;2023-02-05T11:19:51;102620.00;;;7.60
11792;BMP180;5953;52.372;9.918;2023-02-05T11:22:26;102642.00;;;7.60
11792;BMP180;5953;52.372;9.918;2023-02-05T11:25:05;102647.00;;;7.80
11792;BMP180;5953;52.372;9.918;2023-02-05T11:27:34;102652.00;;;8.00
11792;BMP180;5953;52.372;9.918;2023-02-05T11:30:22;102647.00;;;8.10
11792;BMP180;5953;52.372;9.918;2023-02-05T11:33:24;102642.00;;;7.50
11792;BMP180;5953;52.372;9.918;2023-02-05T11:35:55;102652.00;;;7.90
11792;BMP180;5953;52.372;9.918;2023-02-05T11:38:26;102662.00;;;8.00
11792;BMP180;5953;52.372;9.918;2023-02-05T11:40:58;102669.00;;;8.10
11792;BMP180;5953;52.372;9.918;2023-02-05T11:43:29;102670.00;;;8.20
11792;BMP180;5953;52.372;9.918;2023-02-05T11:45:59;102667.00;;;8.30
11792;BMP180;5953;52.372;9.918;2023-02-05T11:48:36;102671.00;;;8.30
11792;BMP180;5953;52.372;9.918;2023-02-05T11:51:07;102681.00;;;8.30
11792;BMP180;5953;52.372;9.918;2023-02-05T11:53:36;102685.00;;;8.40
11792;BMP180;5953;52.372;9.918;2023-02-05T11:56:08;102687.00;;;8.30
11792;BMP180;5953;52.372;9.918;2023-02-05T11:58:36;102687.00;;;8.40
11792;BMP180;5953;52.372;9.918;2023-02-05T12:01:07;102692.00;;;8.50
11792;BMP180;5953;52.372;9.918;2023-02-05T12:03:57;102685.00;;;8.60
11792;BMP180;5953;52.372;9.918;2023-02-05T12:06:30;102695.00;;;8.30
11792;BMP180;5953;52.372;9.918;2023-02-05T12:08:59;102704.00;;;8.40
11792;BMP180;5953;52.372;9.918;2023-02-05T12:11:39;102698.00;;;8.60
11792;BMP180;5953;52.372;9.918;2023-02-05T12:14:33;102704.00;;;8.80
11792;BMP180;5953;52.372;9.918;2023-02-05T12:17:11;102709.00;;;8.80
11792;BMP180;5953;52.372;9.918;2023-02-05T12:19:50;102714.00;;;8.70
11792;BMP180;5953;52.372;9.918;2023-02-05T12:22:32;102728.00;;;9.00
11792;BMP180;5953;52.372;9.918;2023-02-05T12:25:13;102729.00;;;8.90
11792;BMP180;5953;52.372;9.918;2023-02-05T12:27:54;102726.00;;;9.00
11792;BMP180;5953;52.372;9.918;2023-02-05T12:30:31;102721.00;;;8.90
11792;BMP180;5953;52.372;9.918;2023-02-05T12:33:11;102716.00;;;9.00
11792;BMP180;5953;52.372;9.918;2023-02-05T12:35:52;102722.00;;;9.00
11792;BMP180;5953;52.372;9.918;2023-02-05T12:38:31;102716.00;;;9.00
11792;BMP180;5953;52.372;9.918;2023-02-05T12:41:12;102719.00;;;8.90
11792;BMP180;5953;52.372;9.918;2023-02-05T12:43:44;102710.00;;;8.90
11792;BMP180;5953;52.372;9.918;2023-02-05T12:46:26;102707.00;;;8.80
11792;BMP180;5953;52.372;9.918;2023-02-05T12:49:12;102699.00;;;8.90
11792;BMP180;5953;52.372;9.918;2023-02-05T12:51:53;102684.00;;;8.90
11792;BMP180;5953;52.372;9.918;2023-02-05T12:54:33;102677.00;;;9.00
11792;BMP180;5953;52.372;9.918;2023-02-05T12:57:07;102662.00;;;8.90
11792;BMP180;5953;52.372;9.918;2023-02-05T12:59:39;102643.00;;;8.80
11792;BMP180;5953;52.372;9.918;2023-02-05T13:02:18;102647.00;;;8.80
11792;BMP180;5953;52.372;9.918;2023-02-05T13:04:52;102639.00;;;8.80
11792;BMP180;5953;52.372;9.918;2023-02-05T13:07:29;102640.00;;;8.90
11792;BMP180;5953;52.372;9.918;2023-02-05T13:10:01;102654.00;;;8.80
11792;BMP180;5953;52.372;9.918;2023-02-05T13:12:33;102655.00;;;8.70
11792;BMP180;5953;52.372;9.918;2023-02-05T13:15:09;102656.00;;;8.80
11792;BMP180;5953;52.372;9.918;2023-02-05T13:17:44;102660.00;;;8.80
11792;BMP180;5953;52.372;9.918;2023-02-05T13:20:21;102674.00;;;8.80
11792;BMP180;5953;52.372;9.918;2023-02-05T13:23:11;102680.00;;;8.90
11792;BMP180;5953;52.372;9.918;2023-02-05T13:25:57;102694.00;;;8.90
11792;BMP180;5953;52.372;9.918;2023-02-05T13:28:45;102693.00;;;8.90
11792;BMP180;5953;52.372;9.918;2023-02-05T13:31:27;102696.00;;;9.10
11792;BMP180;5953;52.372;9.918;2023-02-05T13:34:01;102698.00;;;9.20
11792;BMP180;5953;52.372;9.918;2023-02-05T13:39:59;102705.00;;;9.20
11792;BMP180;5953;52.372;9.918;2023-02-05T13:43:01;102700.00;;;9.10
11792;BMP180;5953;52.372;9.918;2023-02-05T13:48:59;102699.00;;;9.30
11792;BMP180;5953;52.372;9.918;2023-02-05T13:51:39;102694.00;;;9.30
11792;BMP180;5953;52.372;9.918;2023-02-05T13:57:26;102712.00;;;9.40
11792;BMP180;5953;52.372;9.918;2023-02-05T14:00:04;102721.00;;;9.50
11792;BMP180;5953;52.372;9.918;2023-02-05T14:02:39;102727.00;;;9.50
11792;BMP180;5953;52.372;9.918;2023-02-05T14:05:09;102736.00;;;9.60
11792;BMP180;5953;52.372;9.918;2023-02-05T14:07:43;102729.00;;;9.60
11792;BMP180;5953;52.372;9.918;2023-02-05T14:10:23;102726.00;;;9.70
11792;BMP180;5953;52.372;9.918;2023-02-05T14:13:07;102728.00;;;9.80
11792;BMP180;5953;52.372;9.918;2023-02-05T14:15:39;102725.00;;;9.80
11792;BMP180;5953;52.372;9.918;2023-02-05T14:18:09;102729.00;;;9.80
11792;BMP180;5953;52.372;9.918;2023-02-05T14:20:41;102739.00;;;9.80
11792;BMP180;5953;52.372;9.918;2023-02-05T14:23:13;102751.00;;;10.00
11792;BMP180;5953;52.372;9.918;2023-02-05T14:26:10;102756.00;;;9.90
11792;BMP180;5953;52.372;9.918;2023-02-05T14:28:48;102756.00;;;9.80
11792;BMP180;5953;52.372;9.918;2023-02-05T14:34:42;102757.00;;;10.10
11792;BMP180;5953;52.372;9.918;2023-02-05T14:37:33;102752.00;;;9.90
11792;BMP180;5953;52.372;9.918;2023-02-05T14:40:20;102759.00;;;9.80
11792;BMP180;5953;52.372;9.918;2023-02-05T14:42:50;102766.00;;;10.00
11792;BMP180;5953;52.372;9.918;2023-02-05T14:45:25;102780.00;;;10.10
11792;BMP180;5953;52.372;9.918;2023-02-05T14:47:54;102780.00;;;10.10
11792;BMP180;5953;52.372;9.918;2023-02-05T14:50:25;102768.00;;;10.10
11792;BMP180;5953;52.372;9.918;2023-02-05T14:52:57;102782.00;;;10.10
11792;BMP180;5953;52.372;9.918;2023-02-05T14:55:27;102789.00;;;10.30
11792;BMP180;5953;52.372;9.918;2023-02-05T14:58:01;102800.00;;;10.30
11792;BMP180;5953;52.372;9.918;2023-02-05T15:00:33;102796.00;;;10.30
11792;BMP180;5953;52.372;9.918;2023-02-05T15:03:22;102803.00;;;10.20